Time;durP1;ratioP1;P1;durP2;ratioP2;P2;SDS_P1;SDS_P2;PMS_P1;PMS_P2;Temp;Humidity;BMP_temperature;BMP_pressure;BME280_temperature;BME280_humidity;BME280_pressure;Samples;Min_cycle;Max_cycle;Signal;HPM_P1;HPM_P2
2021/07/08 00:00:35;;;;;;;5.25;4.45;;;;;;;;;;3596397;40;20782;-71
2021/07/08 00:03:01;;;;;;;6.25;4.95;;;;;;;;;;3586394;40;20487;-72
2021/07/08 00:05:28;;;;;;;5.55;4.60;;;;;;;;;;3596991;40;20643;-72
2021/07/08 00:08:00;;;;;;;7.40;4.60;;;;;;;;;;3587014;40;20761;-71
2021/07/08 00:10:29;;;;;;;5.30;4.80;;;;;;;;;;3596463;40;20458;-71
2021/07/08 00:12:55;;;;;;;6.38;4.50;;;21.80;99.90;;;;;;3594879;39;20416;-71
2021/07/08 00:15:23;;;;;;;6.07;4.47;;;21.80;99.90;;;;;;3595535;40;20419;-71
2021/07/08 00:17:49;;;;;;;6.77;5.47;;;;;;;;;;3596051;40;20388;-71
2021/07/08 00:20:18;;;;;;;5.83;5.03;;;;;;;;;;3587978;40;20496;-71
2021/07/08 00:22:44;;;;;;;7.03;5.28;;;;;;;;;;3595713;40;20479;-71
2021/07/08 00:25:13;;;;;;;5.80;5.10;;;;;;;;;;3596121;40;20392;-70
2021/07/08 00:27:40;;;;;;;5.22;4.70;;;;;;;;;;3594664;40;20446;-71
2021/07/08 00:30:06;;;;;;;4.97;4.47;;;;;;;;;;3591602;40;20829;-72
2021/07/08 00:32:33;;;;;;;6.05;4.50;;;;;;;;;;3591387;40;20407;-71
2021/07/08 00:34:59;;;;;;;6.22;4.32;;;;;;;;;;3593858;39;20391;-71
2021/07/08 00:37:25;;;;;;;4.22;3.67;;;;;;;;;;3595701;40;20500;-72
2021/07/08 00:39:51;;;;;;;3.90;3.50;;;;;;;;;;3596028;40;20448;-71
2021/07/08 00:42:19;;;;;;;4.38;3.97;;;;;;;;;;3586852;40;20388;-70
2021/07/08 00:44:45;;;;;;;7.43;4.70;;;;;;;;;;3595935;40;20471;-72
2021/07/08 00:47:11;;;;;;;3.50;3.20;;;;;;;;;;3595312;39;20403;-70
2021/07/08 00:49:38;;;;;;;5.13;3.33;;;;;;;;;;3595654;40;20380;-70
2021/07/08 00:52:04;;;;;;;3.63;3.08;;;;;;;;;;3595682;40;20388;-71
2021/07/08 00:54:30;;;;;;;2.95;2.75;;;;;;;;;;3584755;40;20386;-71
2021/07/08 00:56:57;;;;;;;4.23;3.03;;;;;;;;;;3585678;39;20765;-71
2021/07/08 00:59:24;;;;;;;3.03;2.72;;;;;;;;;;3595858;40;20494;-72
2021/07/08 01:01:52;;;;;;;3.63;2.80;;;;;;;;;;3594622;40;20412;-71
2021/07/08 01:04:18;;;;;;;3.80;3.13;;;;;;;;;;3595812;40;20443;-69
2021/07/08 01:06:45;;;;;;;6.05;4.43;;;;;;;;;;3595636;40;20843;-70
2021/07/08 01:09:11;;;;;;;3.83;3.30;;;;;;;;;;3595312;40;20384;-71
2021/07/08 01:11:38;;;;;;;4.38;3.25;;;;;;;;;;3595719;40;20383;-70
2021/07/08 01:14:04;;;;;;;3.67;3.22;;;;;;;;;;3595383;40;20393;-70
2021/07/08 01:16:32;;;;;;;5.40;3.47;;;;;;;;;;3595986;40;20445;-70
2021/07/08 01:18:58;;;;;;;5.18;3.70;;;;;;;;;;3591534;40;20424;-71
2021/07/08 01:21:26;;;;;;;5.05;3.60;;;;;;;;;;3585004;40;20404;-70
2021/07/08 01:23:53;;;;;;;3.50;3.03;;;;;;;;;;3595106;40;20510;-70
2021/07/08 01:26:19;;;;;;;3.50;3.20;;;;;;;;;;3594984;39;20388;-71
2021/07/08 01:28:45;;;;;;;4.82;3.70;;;;;;;;;;3595359;40;20393;-70
2021/07/08 01:31:11;;;;;;;4.13;3.20;;;;;;;;;;3595333;40;20495;-70
2021/07/08 01:33:38;;;;;;;4.40;3.20;;;;;;;;;;3594491;40;20415;-70
2021/07/08 01:36:04;;;;;;;3.58;3.28;;;;;;;;;;3595253;40;20395;-71
2021/07/08 01:38:32;;;;;;;4.82;3.67;;;;;;;;;;3594301;40;20409;-69
2021/07/08 01:40:58;;;;;;;3.10;2.90;;;;;;;;;;3596195;40;20787;-71
2021/07/08 01:43:24;;;;;;;4.82;3.67;;;;;;;;;;3597149;40;20447;-72
2021/07/08 01:45:50;;;;;;;3.78;3.25;;;;;;;;;;3594250;40;20402;-71
2021/07/08 01:48:16;;;;;;;4.22;3.80;;;;;;;;;;3595116;40;20364;-70
2021/07/08 01:50:43;;;;;;;3.60;3.17;;;;;;;;;;3595580;40;20384;-71
2021/07/08 01:53:09;;;;;;;3.85;3.38;;;;;;;;;;3595016;39;20407;-71
2021/07/08 01:55:36;;;;;;;4.25;3.80;;;;;;;;;;3596019;40;20480;-70
2021/07/08 01:58:02;;;;;;;5.13;4.63;;;;;;;;;;3594879;39;20789;-71
2021/07/08 02:00:29;;;;;;;6.53;4.88;;;;;;;;;;3595474;40;20450;-72
2021/07/08 02:02:56;;;;;;;5.32;3.95;;;;;;;;;;3595800;40;20500;-69
2021/07/08 02:05:22;;;;;;;4.63;4.22;;;;;;;;;;3592424;40;20390;-71
2021/07/08 02:07:49;;;;;;;4.60;3.93;;;;;;;;;;3587294;40;20456;-69
2021/07/08 02:10:16;;;;;;;5.20;4.07;;;;;;;;;;3593985;39;20402;-70
2021/07/08 02:12:44;;;;;;;4.63;4.03;;;;;;;;;;3595525;40;20400;-71
2021/07/08 02:15:11;;;;;;;6.82;5.20;;;;;;;;;;3586302;40;20442;-71
2021/07/08 02:17:38;;;;;;;7.93;6.03;;;;;;;;;;3595740;40;20436;-72
2021/07/08 02:20:06;;;;;;;8.85;6.43;;;21.70;99.90;;;;;;3588132;40;20452;-72
2021/07/08 02:22:34;;;;;;;4.40;4.00;;;21.20;99.90;;;;;;3590006;40;20416;-71
2021/07/08 02:25:00;;;;;;;4.87;4.33;;;21.00;99.90;;;;;;3580724;40;20469;-71
2021/07/08 02:27:26;;;;;;;4.35;3.83;;;21.10;99.90;;;;;;3585006;40;20500;-71
2021/07/08 02:29:53;;;;;;;4.82;4.32;;;21.20;99.90;;;;;;3586320;40;20483;-72
2021/07/08 02:32:19;;;;;;;4.93;4.43;;;21.40;99.90;;;;;;3584485;40;20706;-71
2021/07/08 02:34:48;;;;;;;5.25;4.20;;;21.40;99.90;;;;;;3584769;40;20402;-71
2021/07/08 02:37:14;;;;;;;4.80;4.10;;;21.40;99.90;;;;;;3583828;40;20402;-71
2021/07/08 02:39:41;;;;;;;4.63;3.73;;;21.40;99.90;;;;;;3585300;40;20402;-72
2021/07/08 02:42:07;;;;;;;3.70;3.40;;;21.40;99.90;;;;;;3585350;40;20402;-72
2021/07/08 02:44:33;;;;;;;3.78;3.40;;;21.40;99.90;;;;;;3581559;40;20398;-72
2021/07/08 02:47:01;;;;;;;5.30;3.65;;;21.40;99.90;;;;;;3585290;40;20393;-70
2021/07/08 02:49:27;;;;;;;3.90;2.97;;;21.50;99.90;;;;;;3584794;40;20434;-71
2021/07/08 02:51:53;;;;;;;4.68;3.10;;;21.50;99.90;;;;;;3585258;40;20401;-72
2021/07/08 02:54:19;;;;;;;4.93;3.60;;;21.30;99.90;;;;;;3591147;40;20480;-71
2021/07/08 02:56:45;;;;;;;3.42;3.13;;;21.20;99.90;;;;;;3582973;40;20416;-68
2021/07/08 02:59:11;;;;;;;3.15;2.88;;;21.20;99.90;;;;;;3584905;40;20429;-69
2021/07/08 03:01:37;;;;;;;4.35;3.35;;;21.10;99.90;;;;;;3584344;40;20389;-68
2021/07/08 03:04:05;;;;;;;3.45;3.15;;;21.10;99.90;;;;;;3588560;40;20472;-69
2021/07/08 03:06:32;;;;;;;4.47;3.30;;;21.10;99.90;;;;;;3579792;40;20412;-69
2021/07/08 03:08:58;;;;;;;4.45;3.80;;;21.10;99.90;;;;;;3580894;40;20409;-68
2021/07/08 03:11:24;;;;;;;3.50;3.20;;;;;;;;;;3580911;40;20409;-69
2021/07/08 03:13:50;;;;;;;3.45;2.88;;;;;;;;;;3586163;40;20400;-69
2021/07/08 03:16:16;;;;;;;3.90;3.40;;;;;;;;;;3586290;40;20404;-68
2021/07/08 03:18:42;;;;;;;4.40;3.10;;;;;;;;;;3580459;40;20375;-68
2021/07/08 03:21:10;;;;;;;3.95;3.17;;;;;;;;;;3584060;40;20382;-68
2021/07/08 03:23:36;;;;;;;2.90;2.60;;;;;;;;;;3583504;40;20432;-69
2021/07/08 03:26:02;;;;;;;3.20;2.92;;;;;;;;;;3586173;40;20397;-68
2021/07/08 03:28:28;;;;;;;3.30;2.70;;;21.10;99.90;;;;;;3585945;40;20438;-68
2021/07/08 03:30:55;;;;;;;3.30;3.00;;;21.20;99.90;;;;;;3581134;40;20402;-68
2021/07/08 03:33:21;;;;;;;3.45;3.15;;;21.20;99.90;;;;;;3585946;40;20406;-68
2021/07/08 03:35:46;;;;;;;3.25;2.95;;;21.20;99.90;;;;;;3585036;40;20393;-68
2021/07/08 03:38:14;;;;;;;4.80;2.70;;;21.30;99.90;;;;;;3586106;40;20659;-68
2021/07/08 03:40:42;;;;;;;3.42;2.72;;;21.30;99.90;;;;;;3586027;40;20409;-68
2021/07/08 03:43:08;;;;;;;3.95;2.80;;;21.20;99.90;;;;;;3585824;40;20386;-68
2021/07/08 03:45:34;;;;;;;5.30;3.17;;;21.20;99.90;;;;;;3583339;40;20458;-68
2021/07/08 03:48:00;;;;;;;4.25;3.15;;;21.10;99.90;;;;;;3585310;40;20563;-69
2021/07/08 03:50:26;;;;;;;3.97;3.03;;;21.10;99.90;;;;;;3585082;40;20398;-68
2021/07/08 03:52:52;;;;;;;4.03;2.97;;;21.00;99.90;;;;;;3585617;40;20713;-69
2021/07/08 03:55:20;;;;;;;3.13;2.83;;;;;;;;;;3588590;40;20394;-68
2021/07/08 03:57:52;;;;;;;5.53;2.70;;;;;;;;;;3585671;40;20421;-68
2021/07/08 04:00:20;;;;;;;3.30;3.00;;;20.90;99.90;;;;;;3586405;40;20375;-68
2021/07/08 04:02:46;;;;;;;3.90;3.10;;;20.80;99.90;;;;;;3586019;40;20814;-68
2021/07/08 04:05:12;;;;;;;4.38;2.97;;;20.80;99.90;;;;;;3588523;40;20448;-69
2021/07/08 04:07:38;;;;;;;4.03;3.10;;;20.80;99.90;;;;;;3586991;40;20394;-68
2021/07/08 04:10:05;;;;;;;3.22;2.63;;;20.80;99.90;;;;;;3585975;40;20487;-68
2021/07/08 04:12:32;;;;;;;3.42;2.80;;;20.70;99.90;;;;;;3587191;40;20386;-68
2021/07/08 04:14:58;;;;;;;3.65;2.63;;;20.70;99.90;;;;;;3587203;40;20374;-68
2021/07/08 04:17:24;;;;;;;4.47;2.42;;;20.70;99.90;;;;;;3584972;40;20402;-68
2021/07/08 04:19:51;;;;;;;6.97;3.22;;;20.70;99.90;;;;;;3577247;40;20384;-68
2021/07/08 04:22:16;;;;;;;2.60;2.40;;;20.70;99.90;;;;;;3585015;40;20382;-68
2021/07/08 04:24:42;;;;;;;3.20;2.70;;;20.70;99.90;;;;;;3585982;40;20418;-68
2021/07/08 04:27:08;;;;;;;4.88;2.58;;;20.70;99.90;;;;;;3586812;40;20755;-68
2021/07/08 04:29:36;;;;;;;5.22;2.75;;;20.70;99.90;;;;;;3584815;40;20402;-68
2021/07/08 04:32:02;;;;;;;5.57;2.80;;;20.80;99.90;;;;;;3584838;40;20410;-67
2021/07/08 04:34:28;;;;;;;2.90;2.70;;;20.80;99.90;;;;;;3584957;40;20402;-68
2021/07/08 04:36:54;;;;;;;4.77;2.77;;;;;;;;;;3582903;40;20425;-67
2021/07/08 04:39:20;;;;;;;4.07;2.70;;;;;;;;;;3575733;40;20412;-68
2021/07/08 04:41:47;;;;;;;3.58;2.47;;;;;;;;;;3589413;40;20524;-67
2021/07/08 04:44:13;;;;;;;3.35;2.60;;;;;;;;;;3587653;40;20717;-67
2021/07/08 04:46:41;;;;;;;3.60;2.40;;;;;;;;;;3586828;40;20375;-67
2021/07/08 04:49:07;;;;;;;3.88;2.40;;;;;;;;;;3582275;40;20393;-68
2021/07/08 04:51:33;;;;;;;4.32;2.78;;;;;;;;;;3586167;40;20392;-67
2021/07/08 04:53:59;;;;;;;4.05;2.90;;;;;;;;;;3586831;40;20402;-68
2021/07/08 04:56:26;;;;;;;4.13;2.60;;;;;;;;;;3586200;40;20752;-68
2021/07/08 04:58:52;;;;;;;2.50;2.30;;;;;;;;;;3575836;40;20764;-67
2021/07/08 05:01:18;;;;;;;3.13;2.80;;;;;;;;;;3585983;40;20485;-67
2021/07/08 05:03:45;;;;;;;3.85;2.70;;;;;;;;;;3583465;40;20420;-68
2021/07/08 05:06:12;;;;;;;3.53;2.80;;;;;;;;;;3586214;40;20612;-68
2021/07/08 05:08:40;;;;;;;3.92;2.90;;;;;;;;;;3574530;40;20401;-68
2021/07/08 05:11:07;;;;;;;4.60;3.30;;;;;;;;;;3585372;40;20391;-68
2021/07/08 05:13:34;;;;;;;4.38;3.58;;;;;;;;;;3583191;40;20376;-68
2021/07/08 05:16:00;;;;;;;2.78;2.50;;;;;;;;;;3583012;40;20379;-67
2021/07/08 05:18:26;;;;;;;4.82;2.60;;;;;;;;;;3576153;40;20384;-67
2021/07/08 05:20:55;;;;;;;2.50;2.30;;;;;;;;;;3581378;40;20760;-67
2021/07/08 05:23:25;;;;;;;3.97;2.50;;;;;;;;;;3583817;40;20867;-68
2021/07/08 05:25:51;;;;;;;2.95;2.60;;;;;;;;;;3581960;40;20808;-67
2021/07/08 05:28:18;;;;;;;5.03;2.67;;;;;;;;;;3585097;40;20395;-68
2021/07/08 05:30:44;;;;;;;3.88;2.67;;;;;;;;;;3574069;40;20398;-69
2021/07/08 05:33:10;;;;;;;3.58;2.75;;;;;;;;;;3581057;40;20757;-68
2021/07/08 05:35:36;;;;;;;3.90;2.78;;;;;;;;;;3582135;40;20383;-68
2021/07/08 05:38:06;;;;;;;4.40;2.78;;;;;;;;;;3585568;40;20417;-68
2021/07/08 05:40:32;;;;;;;4.70;2.83;;;;;;;;;;3583677;40;20646;-68
2021/07/08 05:42:58;;;;;;;4.70;3.10;;;;;;;;;;3586390;40;20468;-68
2021/07/08 05:45:25;;;;;;;5.68;2.92;;;;;;;;;;3585927;40;20405;-67
2021/07/08 05:47:51;;;;;;;9.77;3.72;;;;;;;;;;3586153;40;20382;-67
2021/07/08 05:50:18;;;;;;;6.30;4.40;;;;;;;;;;3585698;40;20433;-67
2021/07/08 05:52:45;;;;;;;7.60;4.28;;;20.70;99.90;;;;;;3581341;40;20398;-69
2021/07/08 06:01:21;;;;;;;2.45;1.40;;;;;;;;;;3585105;40;20406;-65
2021/07/08 06:03:47;;;;;;;3.58;1.50;;;;;;;;;;3583037;40;20422;-65
2021/07/08 06:06:14;;;;;;;2.00;1.40;;;;;;;;;;3583119;40;20399;-65
2021/07/08 06:08:40;;;;;;;1.60;1.30;;;;;;;;;;3583878;40;20386;-65
2021/07/08 06:11:06;;;;;;;2.10;1.20;;;;;;;;;;3584019;40;20393;-65
2021/07/08 06:13:33;;;;;;;1.67;1.13;;;;;;;;;;3584817;40;20405;-65
2021/07/08 06:15:59;;;;;;;1.20;1.10;;;;;;;;;;3585217;40;20388;-64
2021/07/08 06:18:26;;;;;;;2.20;1.45;;;;;;;;;;3584923;40;20402;-65
2021/07/08 06:20:52;;;;;;;3.15;1.20;;;;;;;;;;3584323;40;20645;-65
2021/07/08 06:23:20;;;;;;;3.03;1.95;;;;;;;;;;3584312;40;20667;-65
2021/07/08 06:25:47;;;;;;;5.05;1.95;;;;;;;;;;3583023;40;20399;-65
2021/07/08 06:28:14;;;;;;;3.67;2.13;;;;;;;;;;3581276;40;20390;-66
2021/07/08 06:30:40;;;;;;;3.75;2.45;;;;;;;;;;3584535;40;20378;-65
2021/07/08 06:33:06;;;;;;;4.35;2.45;;;;;;;;;;3583471;40;20378;-65
2021/07/08 06:35:34;;;;;;;3.33;2.72;;;;;;;;;;3580957;40;20771;-65
2021/07/08 06:38:00;;;;;;;3.40;2.72;;;;;;;;;;3584661;40;20398;-65
2021/07/08 06:40:26;;;;;;;4.90;3.08;;;;;;;;;;3577931;40;20374;-66
2021/07/08 06:42:53;;;;;;;3.40;2.60;;;;;;;;;;3580067;40;20406;-65
2021/07/08 06:45:20;;;;;;;4.95;3.00;;;;;;;;;;3583439;40;20449;-65
2021/07/08 06:47:51;;;;;;;3.10;2.90;;;;;;;;;;3583944;40;20394;-66
2021/07/08 06:50:17;;;;;;;5.70;3.28;;;;;;;;;;3585279;40;20427;-65
2021/07/08 06:52:45;;;;;;;4.85;3.53;;;;;;;;;;3585317;40;20391;-67
2021/07/08 06:55:12;;;;;;;4.78;3.55;;;;;;;;;;3586336;40;20401;-66
2021/07/08 06:57:50;;;;;;;5.00;3.17;;;;;;;;;;3585591;40;20370;-65
2021/07/08 07:00:17;;;;;;;4.97;3.50;;;;;;;;;;3584975;40;20371;-66
2021/07/08 07:02:43;;;;;;;6.60;3.65;;;;;;;;;;3588937;40;20398;-68
2021/07/08 07:05:10;;;;;;;3.67;3.15;;;;;;;;;;3585948;40;20401;-66
2021/07/08 07:07:36;;;;;;;4.90;3.20;;;;;;;;;;3584313;40;20409;-66
2021/07/08 07:10:04;;;;;;;3.30;2.92;;;;;;;;;;3585633;40;20392;-66
2021/07/08 07:12:30;;;;;;;4.57;3.13;;;;;;;;;;3587089;40;20390;-67
2021/07/08 07:14:56;;;;;;;4.82;3.60;;;;;;;;;;3585720;40;20382;-66
2021/07/08 07:17:22;;;;;;;4.00;2.65;;;;;;;;;;3585272;40;20709;-67
2021/07/08 07:19:48;;;;;;;3.45;2.97;;;;;;;;;;3586326;40;20770;-67
2021/07/08 07:22:15;;;;;;;4.22;3.40;;;;;;;;;;3584643;40;20772;-66
2021/07/08 07:24:44;;;;;;;3.58;3.17;;;;;;;;;;3593958;39;21213;-66
2021/07/08 07:27:11;;;;;;;4.25;2.90;;;;;;;;;;3596483;40;20379;-66
2021/07/08 07:29:38;;;;;;;4.80;2.90;;;;;;;;;;3586091;40;21630;-66
2021/07/08 07:32:04;;;;;;;3.47;3.17;;;;;;;;;;3595364;40;20379;-66
2021/07/08 07:34:30;;;;;;;3.40;2.77;;;;;;;;;;3596992;40;20372;-66
2021/07/08 07:36:56;;;;;;;4.68;2.85;;;;;;;;;;3597240;40;20388;-66
2021/07/08 07:39:22;;;;;;;2.95;2.65;;;;;;;;;;3588003;40;20433;-66
2021/07/08 07:41:48;;;;;;;3.05;2.50;;;;;;;;;;3584676;40;20402;-66
2021/07/08 07:44:16;;;;;;;3.28;2.70;;;;;;;;;;3595785;40;20393;-66
2021/07/08 07:46:42;;;;;;;2.40;2.20;;;;;;;;;;3587686;40;20396;-66
2021/07/08 07:49:10;;;;;;;2.85;2.58;;;;;;;;;;3594352;40;20473;-67
2021/07/08 07:51:37;;;;;;;2.80;2.50;;;;;;;;;;3585852;40;20396;-66
2021/07/08 07:54:03;;;;;;;2.80;2.33;;;;;;;;;;3595220;40;20392;-66
2021/07/08 07:56:29;;;;;;;2.70;2.40;;;;;;;;;;3585914;40;20544;-66
2021/07/08 07:58:55;;;;;;;4.03;2.95;;;;;;;;;;3595913;40;20441;-66
2021/07/08 08:01:23;;;;;;;3.92;2.40;;;;;;;;;;3595165;40;20397;-67
2021/07/08 08:03:50;;;;;;;3.22;2.20;;;;;;;;;;3595443;40;20778;-66
2021/07/08 08:09:01;;;;;;;2.53;2.13;;;;;;;;;;3594979;40;20395;-66
2021/07/08 08:11:27;;;;;;;2.80;2.10;;;;;;;;;;3585035;40;20487;-66
2021/07/08 08:13:53;;;;;;;2.83;1.67;;;;;;;;;;3595030;40;20372;-67
2021/07/08 08:16:19;;;;;;;3.55;1.60;;;;;;;;;;3587392;40;20419;-66
2021/07/08 08:18:47;;;;;;;3.13;1.88;;;;;;;;;;3587726;39;20392;-69
2021/07/08 08:21:13;;;;;;;4.25;2.42;;;;;;;;;;3596944;40;20440;-66
2021/07/08 08:23:39;;;;;;;4.18;2.08;;;20.20;99.90;;;;;;3597104;40;20791;-67
2021/07/08 08:26:06;;;;;;;4.65;2.10;;;;;;;;;;3585055;40;20458;-66
2021/07/08 08:28:32;;;;;;;2.22;1.80;;;;;;;;;;3594818;40;20645;-66
2021/07/08 08:30:58;;;;;;;2.63;1.90;;;;;;;;;;3585226;40;20403;-66
2021/07/08 08:33:24;;;;;;;2.88;1.60;;;;;;;;;;3586232;40;20766;-65
2021/07/08 08:35:52;;;;;;;2.90;2.00;;;;;;;;;;3587456;40;20635;-67
2021/07/08 08:38:18;;;;;;;3.08;1.60;;;;;;;;;;3595581;40;20388;-65
2021/07/08 08:40:46;;;;;;;3.35;1.92;;;;;;;;;;3586131;40;20393;-65
2021/07/08 08:43:12;;;;;;;2.17;1.73;;;;;;;;;;3596613;40;20372;-66
2021/07/08 08:45:38;;;;;;;2.05;1.45;;;;;;;;;;3593847;40;20399;-66
2021/07/08 08:48:05;;;;;;;2.27;1.53;;;;;;;;;;3585213;40;20719;-67
2021/07/08 08:50:33;;;;;;;2.90;1.80;;;;;;;;;;3595702;40;20396;-67
2021/07/08 08:53:00;;;;;;;2.55;1.70;;;;;;;;;;3594500;40;20396;-66
2021/07/08 08:55:27;;;;;;;3.10;1.92;;;;;;;;;;3585459;40;20408;-66
2021/07/08 08:57:53;;;;;;;1.63;1.50;;;;;;;;;;3595524;40;20369;-67
2021/07/08 09:00:36;;;;;;;3.33;1.63;;;;;;;;;;3594930;39;20388;-67
2021/07/08 09:03:02;;;;;;;3.97;1.77;;;;;;;;;;3595244;39;20403;-67
2021/07/08 09:05:29;;;;;;;3.37;2.03;;;;;;;;;;3595347;40;20456;-66
2021/07/08 09:08:08;;;;;;;4.20;1.83;;;;;;;;;;3594222;39;20398;-67
2021/07/08 09:10:35;;;;;;;2.42;1.63;;;;;;;;;;3595601;40;20388;-68
2021/07/08 09:13:01;;;;;;;2.00;1.60;;;;;;;;;;3594948;40;20506;-68
2021/07/08 09:15:28;;;;;;;3.05;1.60;;;;;;;;;;3595137;40;20632;-67
2021/07/08 09:17:57;;;;;;;4.07;1.60;;;;;;;;;;3586230;40;20388;-67
2021/07/08 09:20:23;;;;;;;1.95;1.25;;;;;;;;;;3594976;40;20389;-67
2021/07/08 09:22:50;;;;;;;4.38;1.40;;;20.60;99.90;;;;;;3584928;40;20396;-67
2021/07/08 09:25:26;;;;;;;1.48;1.17;;;24.00;99.90;;;;;;3595550;40;20381;-67
2021/07/08 09:28:11;;;;;;;1.60;1.42;;;24.30;99.90;;;;;;3584559;40;20410;-68
2021/07/08 09:30:39;;;;;;;1.90;1.20;;;24.50;99.90;;;;;;3594182;39;20416;-67
2021/07/08 09:33:31;;;;;;;1.85;1.35;;;24.70;99.90;;;;;;3586672;40;20392;-67
2021/07/08 09:36:04;;;;;;;2.10;1.15;;;;;;;;;;3585499;40;20385;-68
2021/07/08 09:38:31;;;;;;;2.47;1.42;;;;;;;;;;3585976;40;20646;-68
2021/07/08 09:41:04;;;;;;;1.60;1.20;;;;;;;;;;3595000;40;20560;-67
2021/07/08 09:43:34;;;;;;;2.97;1.30;;;;;;;;;;3594934;40;20369;-68
2021/07/08 09:46:00;;;;;;;1.92;1.20;;;;;;;;;;3595507;40;20408;-68
2021/07/08 09:48:26;;;;;;;1.90;1.10;;;24.70;99.90;;;;;;3595583;40;20389;-68
2021/07/08 09:50:52;;;;;;;1.30;1.20;;;25.60;99.90;;;;;;3594634;40;20497;-68
2021/07/08 09:53:23;;;;;;;1.27;1.02;;;24.30;99.90;;;;;;3595352;40;20423;-68
2021/07/08 09:56:04;;;;;;;1.23;1.00;;;25.50;99.90;;;;;;3593950;40;20485;-68
2021/07/08 09:58:32;;;;;;;1.90;1.00;;;;;;;;;;3585126;40;20734;-68
2021/07/08 10:01:09;;;;;;;2.88;1.30;;;;;;;;;;3594544;40;20396;-68
2021/07/08 10:03:36;;;;;;;1.55;1.00;;;;;;;;;;3595006;40;20792;-68
2021/07/08 10:06:02;;;;;;;1.50;0.98;;;;;;;;;;3585359;40;20400;-68
2021/07/08 10:08:29;;;;;;;2.08;0.90;;;;;;;;;;3594427;40;20489;-68
2021/07/08 10:10:55;;;;;;;4.65;1.10;;;;;;;;;;3588083;40;20401;-68
2021/07/08 10:13:21;;;;;;;1.60;1.00;;;;;;;;;;3589256;39;20416;-69
2021/07/08 10:15:49;;;;;;;1.70;0.85;;;25.70;99.90;;;;;;3584742;40;20389;-68
2021/07/08 10:18:16;;;;;;;1.48;0.93;;;;;;;;;;3583819;40;20450;-68
2021/07/08 10:20:43;;;;;;;1.05;1.00;;;;;;;;;;3584876;40;20418;-68
2021/07/08 10:23:10;;;;;;;1.20;0.98;;;;;;;;;;3584901;40;20402;-68
2021/07/08 10:25:36;;;;;;;2.13;1.00;;;;;;;;;;3584665;40;20374;-68
2021/07/08 10:28:03;;;;;;;1.30;1.00;;;;;;;;;;3584750;40;20421;-69
2021/07/08 10:30:30;;;;;;;1.73;0.80;;;;;;;;;;3584444;40;20409;-68
2021/07/08 10:32:59;;;;;;;1.65;1.00;;;;;;;;;;3585354;40;20429;-68
2021/07/08 10:35:38;;;;;;;1.45;0.82;;;;;;;;;;3584833;40;20437;-68
2021/07/08 10:38:19;;;;;;;1.20;0.70;;;;;;;;;;3584983;40;20370;-68
2021/07/08 10:40:45;;;;;;;1.85;1.00;;;;;;;;;;3584466;40;20669;-68
2021/07/08 10:43:14;;;;;;;2.10;0.88;;;;;;;;;;3575012;40;20398;-68
2021/07/08 10:45:42;;;;;;;2.30;1.10;;;;;;;;;;3575573;40;20392;-70
2021/07/08 10:48:19;;;;;;;1.45;0.80;;;;;;;;;;3583419;40;20439;-69
2021/07/08 10:50:45;;;;;;;1.03;0.90;;;;;;;;;;3584911;40;21317;-68
2021/07/08 10:53:22;;;;;;;2.08;1.17;;;;;;;;;;3584996;40;20374;-68
2021/07/08 10:55:50;;;;;;;1.90;1.13;;;;;;;;;;3584488;40;20398;-68
2021/07/08 10:58:34;;;;;;;1.48;1.10;;;;;;;;;;3579368;40;20638;-68
2021/07/08 11:01:01;;;;;;;1.45;1.33;;;;;;;;;;3588152;40;20688;-69
2021/07/08 11:03:39;;;;;;;2.45;1.33;;;;;;;;;;3584683;40;20657;-68
2021/07/08 11:06:15;;;;;;;2.03;1.10;;;;;;;;;;3591949;40;20383;-68
2021/07/08 11:08:58;;;;;;;2.10;1.20;;;;;;;;;;3588780;40;20757;-69
2021/07/08 11:11:43;;;;;;;2.15;1.27;;;;;;;;;;3592615;40;20374;-68
2021/07/08 11:14:25;;;;;;;3.83;1.38;;;;;;;;;;3580996;40;20455;-68
2021/07/08 11:16:58;;;;;;;1.53;1.17;;;;;;;;;;3584832;40;20392;-70
2021/07/08 11:19:33;;;;;;;1.20;1.10;;;;;;;;;;3575018;40;20442;-68
2021/07/08 11:22:04;;;;;;;2.53;1.27;;;;;;;;;;3584755;40;20802;-68
2021/07/08 11:24:31;;;;;;;1.65;1.10;;;;;;;;;;3567511;40;20426;-68
2021/07/08 11:26:58;;;;;;;1.90;1.20;;;;;;;;;;3582730;40;20421;-69
2021/07/08 11:29:33;;;;;;;1.60;1.20;;;;;;;;;;3584793;40;20374;-70
2021/07/08 11:32:00;;;;;;;1.63;1.10;;;;;;;;;;3573862;40;20503;-68
2021/07/08 11:34:27;;;;;;;2.63;1.42;;;;;;;;;;3586448;40;20792;-69
2021/07/08 11:36:55;;;;;;;1.65;1.10;;;;;;;;;;3576897;40;20398;-69
2021/07/08 11:39:23;;;;;;;1.50;1.40;;;;;;;;;;3586550;40;20405;-70
2021/07/08 11:41:50;;;;;;;2.72;1.60;;;;;;;;;;3585333;40;20394;-70
2021/07/08 11:44:20;;;;;;;1.98;1.30;;;;;;;;;;3585730;40;20398;-69
2021/07/08 11:46:47;;;;;;;2.20;1.58;;;;;;;;;;3585708;40;20491;-68
2021/07/08 11:49:13;;;;;;;2.20;1.38;;;;;;;;;;3585809;40;20392;-69
2021/07/08 11:51:39;;;;;;;3.90;1.60;;;;;;;;;;3583943;40;20402;-68
2021/07/08 11:54:09;;;;;;;2.78;1.38;;;27.40;99.90;;;;;;3584887;40;20382;-69
2021/07/08 11:56:35;;;;;;;1.90;1.60;;;28.20;99.90;;;;;;3578936;40;20414;-69
2021/07/08 11:59:04;;;;;;;1.73;1.48;;;28.20;99.90;;;;;;3585180;40;20791;-69
2021/07/08 12:01:30;;;;;;;2.20;1.40;;;28.10;99.90;;;;;;3575324;40;20429;-70
2021/07/08 12:03:56;;;;;;;2.10;1.60;;;28.00;99.90;;;;;;3585778;40;20402;-68
2021/07/08 12:06:24;;;;;;;2.90;1.40;;;;;;;;;;3584882;40;20410;-69
2021/07/08 12:08:54;;;;;;;2.20;1.80;;;;;;;;;;3585240;40;20468;-69
2021/07/08 12:11:25;;;;;;;2.63;1.92;;;;;;;;;;3584770;40;20374;-68
2021/07/08 12:13:53;;;;;;;2.38;1.73;;;;;;;;;;3586495;40;20410;-69
2021/07/08 12:16:20;;;;;;;2.65;1.92;;;;;;;;;;3585114;40;20391;-69
2021/07/08 12:18:47;;;;;;;2.38;1.90;;;;;;;;;;3575655;40;20404;-68
2021/07/08 12:21:17;;;;;;;2.80;2.10;;;;;;;;;;3586151;40;20486;-69
2021/07/08 12:23:43;;;;;;;3.75;1.88;;;;;;;;;;3585326;40;20402;-70
2021/07/08 12:26:21;;;;;;;4.57;2.00;;;;;;;;;;3584638;40;20390;-69
2021/07/08 12:28:47;;;;;;;3.35;2.17;;;;;;;;;;3584540;40;20459;-69
2021/07/08 12:31:14;;;;;;;2.83;2.20;;;;;;;;;;3584683;40;20394;-68
2021/07/08 12:33:51;;;;;;;2.92;2.10;;;;;;;;;;3584884;40;20394;-68
2021/07/08 12:36:18;;;;;;;2.95;2.20;;;;;;;;;;3585275;40;20857;-70
2021/07/08 12:38:47;;;;;;;3.03;2.00;;;;;;;;;;3585477;40;20373;-69
2021/07/08 12:41:16;;;;;;;2.37;2.00;;;;;;;;;;3575915;40;20802;-69
2021/07/08 12:43:43;;;;;;;2.67;1.90;;;;;;;;;;3585473;40;20799;-69
2021/07/08 12:46:10;;;;;;;1.95;1.85;;;;;;;;;;3585531;40;20402;-68
2021/07/08 12:48:37;;;;;;;2.85;2.20;;;;;;;;;;3585572;40;20385;-68
2021/07/08 12:51:03;;;;;;;1.58;1.40;;;;;;;;;;3584320;40;20401;-68
2021/07/08 12:53:29;;;;;;;1.73;1.63;;;;;;;;;;3585061;40;21304;-69
2021/07/08 12:55:58;;;;;;;1.83;1.73;;;;;;;;;;3586139;40;20507;-69
2021/07/08 12:58:24;;;;;;;1.70;1.60;;;;;;;;;;3576521;40;20410;-69
2021/07/08 13:00:53;;;;;;;2.00;1.90;;;;;;;;;;3584222;40;20405;-69
2021/07/08 13:03:19;;;;;;;1.90;1.80;;;;;;;;;;3584700;40;20470;-69
2021/07/08 13:05:46;;;;;;;2.30;1.63;;;;;;;;;;3584471;40;20783;-68
2021/07/08 13:08:13;;;;;;;2.08;1.80;;;;;;;;;;3576621;40;20405;-69
2021/07/08 13:10:42;;;;;;;2.28;1.63;;;;;;;;;;3584703;40;20398;-69
2021/07/08 13:13:08;;;;;;;2.63;1.70;;;;;;;;;;3584064;40;20382;-69
2021/07/08 13:15:35;;;;;;;4.38;2.65;;;;;;;;;;3584796;40;20376;-68
2021/07/08 13:18:03;;;;;;;2.97;2.40;;;;;;;;;;3576344;40;20398;-68
2021/07/08 13:20:30;;;;;;;2.67;2.47;;;;;;;;;;3584967;40;20390;-68
2021/07/08 13:22:56;;;;;;;4.35;3.03;;;;;;;;;;3574618;40;20787;-68
2021/07/08 13:25:26;;;;;;;4.43;2.90;;;;;;;;;;3583975;40;20394;-68
2021/07/08 13:27:54;;;;;;;3.03;2.20;;;;;;;;;;3585494;40;20370;-69
2021/07/08 13:30:21;;;;;;;2.50;2.30;;;;;;;;;;3585295;40;20389;-68
2021/07/08 13:32:57;;;;;;;3.08;2.75;;;;;;;;;;3575236;40;20393;-68
2021/07/08 13:35:37;;;;;;;3.17;2.70;;;;;;;;;;3585423;40;20667;-68
2021/07/08 13:38:09;;;;;;;3.10;2.80;;;;;;;;;;3584922;40;20370;-69
2021/07/08 13:40:35;;;;;;;3.83;2.92;;;;;;;;;;3574838;40;20637;-70
2021/07/08 13:43:09;;;;;;;3.10;2.65;;;;;;;;;;3584859;40;20390;-68
2021/07/08 13:45:35;;;;;;;2.88;2.67;;;;;;;;;;3575979;40;20390;-68
2021/07/08 13:48:14;;;;;;;3.53;2.90;;;;;;;;;;3584818;40;20426;-69
2021/07/08 13:50:42;;;;;;;3.63;3.33;;;;;;;;;;3576093;40;20395;-69
2021/07/08 13:53:08;;;;;;;5.30;3.30;;;;;;;;;;3585049;40;20472;-67
2021/07/08 13:55:34;;;;;;;1.10;0.90;;;27.80;99.90;;;;;;3583597;40;20802;-68
2021/07/08 13:58:00;;;;;;;4.00;0.85;;;;;;;;;;3584943;40;20445;-68
2021/07/08 14:00:29;;;;;;;4.07;1.30;;;;;;;;;;3582337;40;20382;-69
2021/07/08 14:02:55;;;;;;;3.88;1.10;;;24.00;99.90;;;;;;3575091;40;20749;-68
2021/07/08 14:05:21;;;;;;;4.67;1.10;;;22.10;99.90;;;;;;3583845;40;20472;-67
2021/07/08 14:07:52;;;;;;;4.97;1.20;;;;;;;;;;3584394;40;20410;-68
2021/07/08 14:10:18;;;;;;;4.90;1.23;;;;;;;;;;3583263;40;20398;-68
2021/07/08 14:12:45;;;;;;;3.60;0.93;;;;;;;;;;3584772;40;20386;-67
2021/07/08 14:15:12;;;;;;;2.67;0.80;;;;;;;;;;3574133;40;20401;-67
2021/07/08 14:17:38;;;;;;;2.10;0.40;;;;;;;;;;3586386;40;20407;-67
2021/07/08 14:20:05;;;;;;;1.33;0.40;;;;;;;;;;3584389;40;20852;-67
2021/07/08 14:22:31;;;;;;;3.35;0.47;;;;;;;;;;3575800;40;20512;-68
2021/07/08 14:24:58;;;;;;;2.60;0.60;;;;;;;;;;3575681;40;20888;-68
2021/07/08 14:27:25;;;;;;;1.47;0.40;;;;;;;;;;3585008;40;20491;-67
2021/07/08 14:29:51;;;;;;;1.80;0.47;;;;;;;;;;3584833;40;20764;-67